createdAt,value
2022-08-10T05:02:28.101Z,96123.41
2022-08-10T05:04:56.365Z,96130.72
2022-08-10T05:07:24.173Z,96128.50
2022-08-10T05:10:03.787Z,96124.13
2022-08-10T05:12:35.947Z,96122.16
2022-08-10T05:15:06.859Z,96127.31
2022-08-10T05:17:36.859Z,96124.81
2022-08-10T05:20:06.709Z,96134.84
2022-08-10T05:22:40.738Z,96135.03
2022-08-10T05:25:11.257Z,96134.16
2022-08-10T05:27:40.286Z,96135.44
2022-08-10T05:30:10.361Z,96137.31
2022-08-10T05:32:55.559Z,96129.03
2022-08-10T05:35:26.169Z,96132.53
2022-08-10T05:38:10.561Z,96130.25
2022-08-10T05:40:46.807Z,96128.56
2022-08-10T05:43:17.765Z,96123.78
2022-08-10T05:46:18.903Z,96117.91
2022-08-10T05:48:54.321Z,96127.50
2022-08-10T05:51:24.558Z,96121.56
2022-08-10T05:54:02.378Z,96125.44
2022-08-10T05:56:54.061Z,96126.38
2022-08-10T06:00:33.200Z,96129.09
2022-08-10T06:02:41.704Z,96123.59
2022-08-10T06:05:06.620Z,96122.56
2022-08-10T06:07:38.427Z,96126.00
2022-08-10T06:10:10.237Z,96121.44
2022-08-10T06:12:54.192Z,96123.59
2022-08-10T06:15:52.182Z,96121.63
2022-08-10T06:18:14.395Z,96119.56
2022-08-10T06:20:43.951Z,96123.31
2022-08-10T06:23:13.385Z,96120.28
2022-08-10T06:26:11.091Z,96115.16
2022-08-10T06:28:33.762Z,96119.25
2022-08-10T06:31:02.990Z,96120.44
2022-08-10T06:33:33.123Z,96116.13
2022-08-10T06:36:04.270Z,96118.19
2022-08-10T06:38:34.787Z,96111.97
2022-08-10T06:41:16.742Z,96113.22
2022-08-10T06:43:56.845Z,96107.38
2022-08-10T06:46:26.303Z,96111.38
2022-08-10T06:48:56.618Z,96089.53
2022-08-10T06:51:28.853Z,96095.22
2022-08-10T06:54:00.883Z,96093.84
2022-08-10T06:56:37.423Z,96093.41
2022-08-10T06:59:13.307Z,96100.22
2022-08-10T07:01:54.317Z,96089.66
2022-08-10T07:04:32.404Z,96090.13
2022-08-10T07:07:06.435Z,96091.28
2022-08-10T07:09:37.731Z,96089.03
2022-08-10T07:12:09.167Z,96091.47
2022-08-10T07:14:43.995Z,96073.47
2022-08-10T07:17:16.608Z,96083.84
2022-08-10T07:19:50.263Z,96074.63
2022-08-10T07:23:08.738Z,96076.69
2022-08-10T07:25:15.985Z,96068.25
2022-08-10T07:28:00.129Z,96067.06
2022-08-10T07:30:30.696Z,96071.06
2022-08-10T07:33:01.141Z,96065.22
2022-08-10T07:35:37.300Z,96067.09
2022-08-10T07:38:18.920Z,96060.03
2022-08-10T07:40:48.659Z,96060.75
2022-08-10T07:43:18.070Z,96066.06
2022-08-10T07:45:47.526Z,96066.16
2022-08-10T07:48:18.022Z,96064.13
2022-08-10T07:50:47.411Z,96059.38
2022-08-10T07:53:22.657Z,96060.56
2022-08-10T07:56:02.143Z,96061.03
2022-08-10T07:58:39.434Z,96059.31
2022-08-10T08:01:16.660Z,96064.41
2022-08-10T08:04:05.614Z,96067.47
2022-08-10T08:06:37.631Z,96067.28
2022-08-10T08:09:07.247Z,96061.22
2022-08-10T08:11:37.145Z,96053.75
2022-08-10T08:14:07.016Z,96059.06
2022-08-10T08:16:36.513Z,96058.94
2022-08-10T08:24:06.309Z,96060.16
2022-08-10T08:24:45.303Z,96069.81
2022-08-10T08:27:16.720Z,96065.91
2022-08-10T08:29:47.402Z,96064.41
2022-08-10T08:32:18.907Z,96063.72
2022-08-10T08:34:48.297Z,96065.31
2022-08-10T08:38:31.941Z,96060.13
2022-08-10T08:40:12.410Z,96058.38
2022-08-10T08:43:05.947Z,96062.75
2022-08-10T08:45:54.068Z,96062.72
2022-08-10T08:48:47.506Z,96064.84
2022-08-10T08:52:08.166Z,96052.72
2022-08-10T08:54:32.918Z,96066.34
2022-08-10T08:57:09.140Z,96053.59
2022-08-10T08:59:51.358Z,96056.41
2022-08-10T09:02:35.078Z,96062.03
2022-08-10T09:05:24.261Z,96060.44
2022-08-10T09:08:14.094Z,96065.47
2022-08-10T09:10:51.547Z,96055.13
2022-08-10T09:13:29.316Z,96055.81
2022-08-10T09:16:07.044Z,96054.66
2022-08-10T09:18:43.075Z,96055.09
2022-08-10T09:21:18.465Z,96056.38
2022-08-10T09:24:04.171Z,96053.78
2022-08-10T09:26:43.859Z,96052.44
2022-08-10T09:29:17.627Z,96052.63
2022-08-10T09:33:05.833Z,96051.56
2022-08-10T09:36:20.692Z,96053.38
2022-08-10T09:38:01.948Z,96050.88
2022-08-10T09:41:01.056Z,96050.47
2022-08-10T09:43:32.323Z,96060.28
2022-08-10T09:46:12.135Z,96048.31
2022-08-10T09:48:48.637Z,96043.91
2022-08-10T09:51:47.057Z,96041.72
2022-08-10T09:54:29.458Z,96044.78
2022-08-10T09:57:44.576Z,96051.00
2022-08-10T10:00:03.038Z,96046.97
2022-08-10T10:02:43.183Z,96051.84
2022-08-10T10:05:30.868Z,96042.28
2022-08-10T10:08:07.031Z,96035.84
2022-08-10T10:10:47.572Z,96044.94
2022-08-10T10:13:41.726Z,96045.19
2022-08-10T10:16:37.663Z,96043.03
2022-08-10T10:19:19.648Z,96036.16
2022-08-10T10:21:54.378Z,96023.09
2022-08-10T10:24:34.167Z,96019.81
2022-08-10T10:27:15.952Z,96028.41
2022-08-10T10:29:57.048Z,96032.94
2022-08-10T10:32:39.244Z,96031.41
2022-08-10T10:35:17.629Z,96026.69
2022-08-10T10:38:02.863Z,96025.63
2022-08-10T10:40:39.726Z,96015.44
2022-08-10T10:43:16.701Z,96022.75
2022-08-10T10:45:57.467Z,96009.78
2022-08-10T10:48:34.026Z,96013.09
2022-08-10T10:51:13.581Z,96015.97
2022-08-10T10:53:47.125Z,96008.19
2022-08-10T10:56:21.529Z,96012.91
2022-08-10T10:58:59.808Z,96015.91
2022-08-10T11:01:45.969Z,96011.09
2022-08-10T11:04:24.192Z,96012.03
2022-08-10T11:07:00.729Z,96019.41
2022-08-10T11:10:09.242Z,96014.56
2022-08-10T11:12:30.432Z,96008.56
2022-08-10T11:15:04.741Z,96011.34
2022-08-10T11:17:39.724Z,96026.09
2022-08-10T11:20:15.806Z,96024.00
2022-08-10T11:22:52.679Z,96027.75
2022-08-10T11:25:27.437Z,96027.38
2022-08-10T11:28:01.759Z,96026.84
2022-08-10T11:30:40.995Z,96032.53
2022-08-10T11:33:15.544Z,96034.94
2022-08-10T11:36:04.088Z,96024.88
2022-08-10T11:38:57.593Z,96026.78
2022-08-10T11:42:09.205Z,96030.34
2022-08-10T11:44:32.099Z,96032.97
2022-08-10T11:47:05.922Z,96027.06
2022-08-10T11:49:38.911Z,96028.34
2022-08-10T11:52:14.428Z,96027.88
2022-08-10T11:57:16.897Z,96026.50
2022-08-10T12:00:00.988Z,96026.44
2022-08-10T12:02:33.936Z,96029.53
2022-08-10T12:05:07.521Z,96023.72
2022-08-10T12:10:07.578Z,96019.31
2022-08-10T12:10:30.504Z,96019.00
2022-08-10T12:13:05.941Z,96024.16
2022-08-10T12:15:35.713Z,96023.22
2022-08-10T12:18:13.772Z,96024.59
2022-08-10T12:20:44.906Z,96019.59
2022-08-10T12:23:18.345Z,96011.34
2022-08-10T12:25:57.831Z,96016.50
2022-08-10T12:28:50.723Z,96016.16
2022-08-10T12:31:25.234Z,96009.38
2022-08-10T12:34:04.589Z,96008.19
2022-08-10T12:36:37.909Z,96007.88
2022-08-10T12:39:13.502Z,96001.16
2022-08-10T12:41:49.595Z,95996.41
2022-08-10T12:44:23.389Z,96005.84
2022-08-10T12:47:17.561Z,95995.44
2022-08-10T12:50:29.441Z,96000.56
2022-08-10T12:52:45.257Z,95994.44
2022-08-10T12:55:14.639Z,95994.84
2022-08-10T12:57:44.999Z,95992.31
2022-08-10T13:00:17.684Z,95984.56
2022-08-10T13:02:49.187Z,95978.88
2022-08-10T13:05:18.534Z,95986.22
2022-08-10T13:08:24.958Z,95977.00
2022-08-10T13:10:45.399Z,95969.94
2022-08-10T13:13:15.817Z,95968.34
2022-08-10T13:15:50.782Z,95976.41
2022-08-10T13:18:27.230Z,95974.00
2022-08-10T13:21:00.640Z,95968.78
2022-08-10T13:23:30.924Z,95965.72
2022-08-10T13:26:01.902Z,95960.38
2022-08-10T13:28:43.298Z,95964.31
2022-08-10T13:31:18.294Z,95959.91
2022-08-10T13:34:36.544Z,95958.97
2022-08-10T13:36:41.479Z,95954.16
2022-08-10T13:39:10.106Z,95952.47
2022-08-10T13:41:40.874Z,95950.66
2022-08-10T13:44:12.507Z,95953.78
2022-08-10T13:46:42.312Z,95952.47
2022-08-10T13:49:12.119Z,95945.44
2022-08-10T13:51:56.687Z,95942.31
2022-08-10T13:54:29.296Z,95950.66
2022-08-10T13:56:57.825Z,95939.81
2022-08-10T14:00:34.231Z,95935.47
2022-08-10T14:02:25.130Z,95939.81
2022-08-10T14:04:55.723Z,95946.81
2022-08-10T14:07:25.067Z,95941.34
2022-08-10T14:09:54.812Z,95935.91
2022-08-10T14:12:33.404Z,95927.13
2022-08-10T14:15:14.482Z,95940.88
2022-08-10T14:17:45.082Z,95937.47
2022-08-10T14:20:19.318Z,95940.63
2022-08-10T14:22:49.468Z,95937.78
2022-08-10T14:25:17.292Z,95933.66
2022-08-10T14:28:03.072Z,95934.72
2022-08-10T14:30:35.192Z,95927.59
2022-08-10T14:33:04.844Z,95931.75
2022-08-10T14:36:19.739Z,95924.56
2022-08-10T14:38:28.691Z,95918.50
2022-08-10T14:40:59.858Z,95916.03
2022-08-10T14:43:29.746Z,95912.16
2022-08-10T14:46:03.613Z,95918.19
2022-08-10T14:48:39.250Z,95917.41
2022-08-10T14:51:08.734Z,95913.69
2022-08-10T14:53:38.584Z,95914.13
2022-08-10T14:56:09.642Z,95917.28
2022-08-10T14:58:59.245Z,95916.00
2022-08-10T15:02:00.001Z,95910.00
2022-08-10T15:04:24.446Z,95910.81
2022-08-10T15:06:54.898Z,95904.97
2022-08-10T15:09:26.458Z,95911.69
2022-08-10T15:12:15.901Z,95911.69
2022-08-10T15:14:46.433Z,95913.38
2022-08-10T15:17:24.134Z,95908.25
2022-08-10T15:20:02.423Z,95905.25
2022-08-10T15:22:41.386Z,95903.66
2022-08-10T15:25:19.105Z,95894.00
2022-08-10T15:27:55.701Z,95895.13
2022-08-10T15:30:32.107Z,95904.31
2022-08-10T15:33:57.626Z,95894.75
2022-08-10T15:36:33.934Z,95901.09
2022-08-10T15:39:05.041Z,95889.38
2022-08-10T15:41:58.017Z,95886.22
2022-08-10T15:44:38.232Z,95890.53
2022-08-10T15:47:10.247Z,95902.25
2022-08-10T15:49:46.245Z,95891.81
2022-08-10T15:52:40.127Z,95880.28
2022-08-10T15:55:43.571Z,95881.47
2022-08-10T15:58:06.773Z,95878.41
2022-08-10T16:00:39.709Z,95872.03
2022-08-10T16:03:14.541Z,95879.13
2022-08-10T16:06:00.307Z,95869.13
2022-08-10T16:08:56.441Z,95873.53
2022-08-10T16:11:37.588Z,95871.66
2022-08-10T16:14:13.996Z,95870.84
2022-08-10T16:16:44.986Z,95874.44
2022-08-10T16:19:23.771Z,95864.00
2022-08-10T16:21:58.063Z,95878.47
2022-08-10T16:24:28.257Z,95870.97
2022-08-10T16:26:57.087Z,95869.44
2022-08-10T16:29:26.988Z,95856.16
2022-08-10T16:31:57.398Z,95863.66
2022-08-10T16:34:28.246Z,95870.94
2022-08-10T16:37:00.729Z,95856.56
2022-08-10T16:39:59.769Z,95871.44
2022-08-10T16:42:23.153Z,95862.84
2022-08-10T16:44:58.901Z,95852.19
2022-08-10T16:47:29.612Z,95862.63
2022-08-10T16:50:01.142Z,95849.69
2022-08-10T16:52:32.840Z,95847.63
2022-08-10T16:55:08.480Z,95844.59
2022-08-10T16:57:56.892Z,95840.25
2022-08-10T17:00:26.904Z,95846.88
2022-08-10T17:02:59.380Z,95846.63
2022-08-10T17:06:03.668Z,95849.19
2022-08-10T17:08:21.700Z,95848.06
2022-08-10T17:10:52.026Z,95856.47
2022-08-10T17:13:23.723Z,95841.56
2022-08-10T17:15:57.355Z,95841.66
2022-08-10T17:18:30.535Z,95841.66
2022-08-10T17:21:00.816Z,95845.31
2022-08-10T17:23:34.610Z,95851.44
2022-08-10T17:26:08.147Z,95845.47
2022-08-10T17:28:39.863Z,95859.25
2022-08-10T17:31:23.776Z,95857.66
2022-08-10T17:33:54.720Z,95857.44
2022-08-10T17:36:25.454Z,95857.59
2022-08-10T17:38:54.775Z,95863.06
2022-08-10T17:41:28.586Z,95860.88
2022-08-10T17:44:03.139Z,95866.66
2022-08-10T17:46:35.666Z,95858.78
2022-08-10T17:49:08.651Z,95861.91
2022-08-10T17:51:39.265Z,95869.94
2022-08-10T17:54:16.057Z,95865.25
2022-08-10T17:56:44.164Z,95859.97
2022-08-10T17:59:17.429Z,95862.06
2022-08-10T18:01:59.097Z,95871.31
2022-08-10T18:04:35.604Z,95870.13
2022-08-10T18:07:11.747Z,95871.91
2022-08-10T18:09:45.521Z,95872.97
2022-08-10T18:12:17.795Z,95875.03
2022-08-10T18:14:47.827Z,95881.81
2022-08-10T18:17:19.952Z,95884.72
2022-08-10T18:19:53.079Z,95884.53
2022-08-10T18:22:22.286Z,95892.41
2022-08-10T18:24:52.864Z,95885.63
2022-08-10T18:27:22.406Z,95892.81
2022-08-10T18:30:11.905Z,95889.06
2022-08-10T18:32:42.778Z,95885.97
2022-08-10T18:35:12.801Z,95890.41
2022-08-10T18:37:42.534Z,95897.13
2022-08-10T18:40:12.280Z,95905.44
2022-08-10T18:42:46.218Z,95904.97
2022-08-10T18:45:16.630Z,95904.88
2022-08-10T18:47:59.543Z,95914.09
2022-08-10T18:50:31.937Z,95915.22
2022-08-10T18:53:02.553Z,95916.03
2022-08-10T18:55:35.545Z,95911.31
2022-08-10T18:58:41.777Z,95915.06
2022-08-10T19:01:30.232Z,95918.91
2022-08-10T19:04:14.497Z,95921.91
2022-08-10T19:07:05.291Z,95919.47
2022-08-10T19:09:48.284Z,95919.53
2022-08-10T19:12:37.018Z,95930.19
2022-08-10T19:15:27.047Z,95929.56
2022-08-10T19:18:08.690Z,95933.09
2022-08-10T19:20:42.410Z,95929.91
2022-08-10T19:23:31.186Z,95932.91
2022-08-10T19:26:42.325Z,95942.41
2022-08-10T19:29:04.297Z,95929.81
2022-08-10T19:31:44.507Z,95932.97
2022-08-10T19:34:34.445Z,95932.69
2022-08-10T19:37:11.121Z,95938.44
2022-08-10T19:40:03.653Z,95943.31
2022-08-10T19:42:42.501Z,95940.44
2022-08-10T19:46:01.355Z,95937.53
2022-08-10T19:48:17.089Z,95940.03
2022-08-10T19:50:54.425Z,95941.16
2022-08-10T19:53:32.416Z,95938.25
2022-08-10T19:56:32.561Z,95942.19
2022-08-10T20:00:14.986Z,95949.53
2022-08-10T20:02:19.053Z,95944.50
2022-08-10T20:04:57.842Z,95939.84
2022-08-10T20:07:35.194Z,95939.22
2022-08-10T20:10:08.818Z,95936.63
2022-08-10T20:12:44.196Z,95934.84
2022-08-10T20:15:22.207Z,95945.53
2022-08-10T20:17:58.162Z,95944.94
2022-08-10T20:20:31.836Z,95943.63
2022-08-10T20:23:12.240Z,95937.19
2022-08-10T20:25:44.614Z,95933.75
2022-08-10T20:28:19.738Z,95933.72
2022-08-10T20:30:53.627Z,95938.75
2022-08-10T20:33:29.108Z,95933.88
2022-08-10T20:36:04.275Z,95940.66
2022-08-10T20:38:39.633Z,95934.03
2022-08-10T20:41:16.685Z,95937.09
2022-08-10T20:44:03.473Z,95935.81
2022-08-10T20:46:34.677Z,95934.38
2022-08-10T20:49:17.220Z,95935.94
2022-08-10T20:51:57.348Z,95929.63
2022-08-10T20:54:32.466Z,95930.91
2022-08-10T20:57:56.417Z,95924.94
2022-08-10T21:00:13.809Z,95922.16
2022-08-10T21:02:58.457Z,95930.88
2022-08-10T21:05:35.347Z,95927.81
2022-08-10T21:08:15.971Z,95923.75
2022-08-10T21:11:09.029Z,95920.66
2022-08-10T21:13:58.075Z,95919.53
2022-08-10T21:16:47.605Z,95914.84
2022-08-10T21:19:53.848Z,95921.28
2022-08-10T21:22:29.331Z,95915.88
2022-08-10T21:25:02.710Z,95916.88
2022-08-10T21:28:00.114Z,95912.25
2022-08-10T21:30:45.807Z,95914.47
2022-08-10T21:33:32.327Z,95921.41
2022-08-10T21:36:09.773Z,95921.50
2022-08-10T21:38:48.413Z,95918.69
2022-08-10T21:41:58.792Z,95920.91
2022-08-10T21:45:11.853Z,95928.41
2022-08-10T21:48:18.667Z,95926.25
2022-08-10T21:51:10.334Z,95925.69
2022-08-10T21:54:05.591Z,95913.13
2022-08-10T21:56:56.261Z,95906.53
2022-08-10T21:59:49.270Z,95909.03
2022-08-10T22:05:52.700Z,95908.59
2022-08-10T22:08:44.418Z,95912.56
2022-08-10T22:11:43.459Z,95905.88
2022-08-10T22:14:33.706Z,95904.09
2022-08-10T22:18:03.363Z,95902.69
2022-08-10T22:20:35.300Z,95901.81
2022-08-10T22:24:06.261Z,95890.66
2022-08-10T22:27:46.614Z,95888.34
2022-08-10T22:30:27.838Z,95890.41
2022-08-10T22:31:25.744Z,95914.44
2022-08-10T22:33:38.984Z,95890.00
2022-08-10T22:36:59.750Z,95883.03
2022-08-10T22:40:05.893Z,95895.69
2022-08-10T22:43:11.036Z,95883.94
2022-08-10T22:46:05.263Z,95888.00
2022-08-10T22:48:59.454Z,95883.13
2022-08-10T22:51:35.608Z,95883.53
2022-08-10T22:54:30.463Z,95882.22
2022-08-10T22:57:16.526Z,95889.63
2022-08-10T22:59:45.923Z,95884.97
2022-08-10T23:07:23.547Z,95878.66
2022-08-10T23:09:59.304Z,95881.19
2022-08-10T23:12:40.201Z,95880.88
2022-08-10T23:15:35.679Z,95880.28
2022-08-10T23:18:25.648Z,95878.16
2022-08-10T23:20:57.034Z,95875.94
2022-08-10T23:23:28.759Z,95872.69
2022-08-10T23:25:58.489Z,95874.09
2022-08-10T23:28:39.054Z,95870.06
2022-08-10T23:31:17.662Z,95866.13
2022-08-10T23:34:07.509Z,95862.06
2022-08-10T23:36:38.409Z,95863.09
2022-08-10T23:39:24.108Z,95857.91
2022-08-10T23:42:00.732Z,95863.69
2022-08-10T23:44:38.850Z,95852.75
2022-08-10T23:47:07.584Z,95854.34
2022-08-10T23:49:37.143Z,95857.25
2022-08-10T23:52:17.969Z,95855.34
2022-08-10T23:54:49.793Z,95853.63
2022-08-10T23:57:21.271Z,95850.69
2022-08-10T23:59:55.424Z,95860.09
